sensor_id;sensor_type;location;lat;lon;timestamp;temperature;humidity
30206;DHT22;17010;51.306;3.150;2022-07-29T00:01:23;18.80;99.90
30206;DHT22;17010;51.306;3.150;2022-07-29T00:03:50;18.80;99.90
30206;DHT22;17010;51.306;3.150;2022-07-29T00:06:16;18.80;99.90
30206;DHT22;17010;51.306;3.150;2022-07-29T00:08:46;18.80;99.90
30206;DHT22;17010;51.306;3.150;2022-07-29T00:11:13;18.60;99.90
30206;DHT22;17010;51.306;3.150;2022-07-29T00:13:41;18.60;99.90
30206;DHT22;17010;51.306;3.150;2022-07-29T00:16:08;18.50;99.90
30206;DHT22;17010;51.306;3.150;2022-07-29T00:18:34;18.50;99.90
30206;DHT22;17010;51.306;3.150;2022-07-29T00:21:01;18.50;99.90
30206;DHT22;17010;51.306;3.150;2022-07-29T00:23:27;18.50;99.90
30206;DHT22;17010;51.306;3.150;2022-07-29T00:25:53;18.40;99.90
30206;DHT22;17010;51.306;3.150;2022-07-29T00:28:19;18.50;99.90
30206;DHT22;17010;51.306;3.150;2022-07-29T00:30:46;18.40;99.90
30206;DHT22;17010;51.306;3.150;2022-07-29T00:33:12;18.40;99.90
30206;DHT22;17010;51.306;3.150;2022-07-29T00:35:38;18.40;99.90
30206;DHT22;17010;51.306;3.150;2022-07-29T00:38:14;18.40;99.90
30206;DHT22;17010;51.306;3.150;2022-07-29T00:40:40;18.30;99.90
30206;DHT22;17010;51.306;3.150;2022-07-29T00:43:06;18.20;99.90
30206;DHT22;17010;51.306;3.150;2022-07-29T00:45:33;18.20;99.90
30206;DHT22;17010;51.306;3.150;2022-07-29T00:47:59;18.20;99.90
30206;DHT22;17010;51.306;3.150;2022-07-29T00:50:25;18.20;99.90
30206;DHT22;17010;51.306;3.150;2022-07-29T00:52:52;18.20;99.90
30206;DHT22;17010;51.306;3.150;2022-07-29T00:55:19;18.20;99.90
30206;DHT22;17010;51.306;3.150;2022-07-29T00:57:48;18.20;99.90
30206;DHT22;17010;51.306;3.150;2022-07-29T01:00:22;18.10;99.90
30206;DHT22;17010;51.306;3.150;2022-07-29T01:02:51;18.10;99.90
30206;DHT22;17010;51.306;3.150;2022-07-29T01:05:19;18.10;99.90
30206;DHT22;17010;51.306;3.150;2022-07-29T01:07:49;18.10;99.90
30206;DHT22;17010;51.306;3.150;2022-07-29T01:10:16;18.00;99.90
30206;DHT22;17010;51.306;3.150;2022-07-29T01:12:45;18.00;99.90
30206;DHT22;17010;51.306;3.150;2022-07-29T01:15:14;18.00;99.90
30206;DHT22;17010;51.306;3.150;2022-07-29T01:23:52;17.90;99.90
30206;DHT22;17010;51.306;3.150;2022-07-29T01:31:41;17.80;99.90
30206;DHT22;17010;51.306;3.150;2022-07-29T01:34:13;17.80;99.90
30206;DHT22;17010;51.306;3.150;2022-07-29T01:36:45;17.70;99.90
30206;DHT22;17010;51.306;3.150;2022-07-29T01:41:59;17.70;99.90
30206;DHT22;17010;51.306;3.150;2022-07-29T01:47:54;17.70;99.90
30206;DHT22;17010;51.306;3.150;2022-07-29T01:50:27;17.60;99.90
30206;DHT22;17010;51.306;3.150;2022-07-29T01:53:02;17.60;99.90
30206;DHT22;17010;51.306;3.150;2022-07-29T01:55:32;17.50;99.90
30206;DHT22;17010;51.306;3.150;2022-07-29T01:58:00;17.60;99.90
30206;DHT22;17010;51.306;3.150;2022-07-29T02:00:31;17.50;99.90
30206;DHT22;17010;51.306;3.150;2022-07-29T02:02:58;17.40;99.90
30206;DHT22;17010;51.306;3.150;2022-07-29T02:05:25;17.40;99.90
30206;DHT22;17010;51.306;3.150;2022-07-29T02:07:58;17.40;99.90
30206;DHT22;17010;51.306;3.150;2022-07-29T02:10:27;17.40;99.90
30206;DHT22;17010;51.306;3.150;2022-07-29T02:12:55;17.40;99.90
30206;DHT22;17010;51.306;3.150;2022-07-29T02:15:27;17.30;99.90
30206;DHT22;17010;51.306;3.150;2022-07-29T02:17:59;17.30;99.90
30206;DHT22;17010;51.306;3.150;2022-07-29T02:20:27;17.20;99.90
30206;DHT22;17010;51.306;3.150;2022-07-29T02:22:58;17.20;99.90
30206;DHT22;17010;51.306;3.150;2022-07-29T02:25:24;17.20;99.90
30206;DHT22;17010;51.306;3.150;2022-07-29T02:27:52;17.20;99.90
30206;DHT22;17010;51.306;3.150;2022-07-29T02:30:22;17.20;99.90
30206;DHT22;17010;51.306;3.150;2022-07-29T02:32:49;17.10;99.90
30206;DHT22;17010;51.306;3.150;2022-07-29T02:35:16;17.10;99.90
30206;DHT22;17010;51.306;3.150;2022-07-29T02:37:47;17.10;99.90
30206;DHT22;17010;51.306;3.150;2022-07-29T02:40:37;17.10;99.90
30206;DHT22;17010;51.306;3.150;2022-07-29T02:43:05;17.10;99.90
30206;DHT22;17010;51.306;3.150;2022-07-29T02:45:32;17.10;99.90
30206;DHT22;17010;51.306;3.150;2022-07-29T02:48:00;17.10;99.90
30206;DHT22;17010;51.306;3.150;2022-07-29T02:50:37;17.10;99.90
30206;DHT22;17010;51.306;3.150;2022-07-29T02:53:16;17.00;99.90
30206;DHT22;17010;51.306;3.150;2022-07-29T02:56:01;17.00;99.90
30206;DHT22;17010;51.306;3.150;2022-07-29T02:58:34;17.00;99.90
30206;DHT22;17010;51.306;3.150;2022-07-29T03:01:08;16.90;99.90
30206;DHT22;17010;51.306;3.150;2022-07-29T03:03:38;16.90;99.90
30206;DHT22;17010;51.306;3.150;2022-07-29T03:06:05;16.90;99.90
30206;DHT22;17010;51.306;3.150;2022-07-29T03:08:33;16.90;99.90
30206;DHT22;17010;51.306;3.150;2022-07-29T03:11:00;16.90;99.90
30206;DHT22;17010;51.306;3.150;2022-07-29T03:13:29;16.80;99.90
30206;DHT22;17010;51.306;3.150;2022-07-29T03:15:57;16.80;99.90
30206;DHT22;17010;51.306;3.150;2022-07-29T03:18:23;16.80;99.90
30206;DHT22;17010;51.306;3.150;2022-07-29T03:20:49;16.90;99.90
30206;DHT22;17010;51.306;3.150;2022-07-29T03:23:20;16.90;99.90
30206;DHT22;17010;51.306;3.150;2022-07-29T03:25:51;16.90;99.90
30206;DHT22;17010;51.306;3.150;2022-07-29T03:28:18;16.80;99.90
30206;DHT22;17010;51.306;3.150;2022-07-29T03:30:47;16.80;99.90
30206;DHT22;17010;51.306;3.150;2022-07-29T03:33:13;16.70;99.90
30206;DHT22;17010;51.306;3.150;2022-07-29T03:35:39;16.70;99.90
30206;DHT22;17010;51.306;3.150;2022-07-29T03:38:06;16.60;99.90
30206;DHT22;17010;51.306;3.150;2022-07-29T03:40:37;16.60;99.90
30206;DHT22;17010;51.306;3.150;2022-07-29T03:43:06;16.50;99.90
30206;DHT22;17010;51.306;3.150;2022-07-29T03:45:33;16.50;99.90
30206;DHT22;17010;51.306;3.150;2022-07-29T03:48:05;16.40;99.90
30206;DHT22;17010;51.306;3.150;2022-07-29T03:50:33;16.40;99.90
30206;DHT22;17010;51.306;3.150;2022-07-29T03:53:00;16.30;99.90
30206;DHT22;17010;51.306;3.150;2022-07-29T03:55:31;16.30;99.90
30206;DHT22;17010;51.306;3.150;2022-07-29T03:58:00;16.30;99.90
30206;DHT22;17010;51.306;3.150;2022-07-29T04:00:27;16.20;99.90
30206;DHT22;17010;51.306;3.150;2022-07-29T04:02:57;16.20;99.90
30206;DHT22;17010;51.306;3.150;2022-07-29T04:05:28;16.20;99.90
30206;DHT22;17010;51.306;3.150;2022-07-29T04:07:56;16.10;99.90
30206;DHT22;17010;51.306;3.150;2022-07-29T04:10:23;16.10;99.90
30206;DHT22;17010;51.306;3.150;2022-07-29T04:12:49;16.10;99.90
30206;DHT22;17010;51.306;3.150;2022-07-29T04:15:15;16.10;99.90
30206;DHT22;17010;51.306;3.150;2022-07-29T04:17:45;16.10;99.90
30206;DHT22;17010;51.306;3.150;2022-07-29T04:20:11;16.10;99.90
30206;DHT22;17010;51.306;3.150;2022-07-29T04:22:39;16.10;99.90
30206;DHT22;17010;51.306;3.150;2022-07-29T04:25:06;16.10;99.90
30206;DHT22;17010;51.306;3.150;2022-07-29T04:27:32;16.10;99.90
30206;DHT22;17010;51.306;3.150;2022-07-29T04:30:01;16.10;99.90
30206;DHT22;17010;51.306;3.150;2022-07-29T04:32:27;16.10;99.90
30206;DHT22;17010;51.306;3.150;2022-07-29T04:34:53;16.20;99.90
30206;DHT22;17010;51.306;3.150;2022-07-29T04:37:22;16.20;99.90
30206;DHT22;17010;51.306;3.150;2022-07-29T04:39:49;16.20;99.90
30206;DHT22;17010;51.306;3.150;2022-07-29T04:42:16;16.20;99.90
30206;DHT22;17010;51.306;3.150;2022-07-29T04:44:42;16.20;99.90
30206;DHT22;17010;51.306;3.150;2022-07-29T04:47:09;16.20;99.90
30206;DHT22;17010;51.306;3.150;2022-07-29T04:49:38;16.30;99.90
30206;DHT22;17010;51.306;3.150;2022-07-29T04:52:05;16.30;99.90
30206;DHT22;17010;51.306;3.150;2022-07-29T04:54:31;16.30;99.90
30206;DHT22;17010;51.306;3.150;2022-07-29T04:57:00;16.30;99.90
30206;DHT22;17010;51.306;3.150;2022-07-29T04:59:27;16.40;99.90
30206;DHT22;17010;51.306;3.150;2022-07-29T05:01:58;16.40;99.90
30206;DHT22;17010;51.306;3.150;2022-07-29T05:04:26;16.40;99.90
30206;DHT22;17010;51.306;3.150;2022-07-29T05:06:55;16.50;99.90
30206;DHT22;17010;51.306;3.150;2022-07-29T05:09:22;16.50;99.90
30206;DHT22;17010;51.306;3.150;2022-07-29T05:11:48;16.60;99.90
30206;DHT22;17010;51.306;3.150;2022-07-29T05:14:16;16.70;99.90
30206;DHT22;17010;51.306;3.150;2022-07-29T05:16:43;16.80;99.90
30206;DHT22;17010;51.306;3.150;2022-07-29T05:19:10;16.90;99.90
30206;DHT22;17010;51.306;3.150;2022-07-29T05:21:38;17.00;99.90
30206;DHT22;17010;51.306;3.150;2022-07-29T05:24:06;17.20;99.90
30206;DHT22;17010;51.306;3.150;2022-07-29T05:26:32;17.30;99.90
30206;DHT22;17010;51.306;3.150;2022-07-29T05:29:02;17.60;99.90
30206;DHT22;17010;51.306;3.150;2022-07-29T05:31:31;18.10;99.90
30206;DHT22;17010;51.306;3.150;2022-07-29T05:33:58;18.70;99.90
30206;DHT22;17010;51.306;3.150;2022-07-29T05:36:25;19.20;99.90
30206;DHT22;17010;51.306;3.150;2022-07-29T05:38:51;19.80;99.90
30206;DHT22;17010;51.306;3.150;2022-07-29T05:41:19;20.20;99.90
30206;DHT22;17010;51.306;3.150;2022-07-29T05:43:45;20.70;99.90
30206;DHT22;17010;51.306;3.150;2022-07-29T05:46:13;21.20;99.90
30206;DHT22;17010;51.306;3.150;2022-07-29T05:48:40;21.50;99.90
30206;DHT22;17010;51.306;3.150;2022-07-29T05:51:06;21.70;99.90
30206;DHT22;17010;51.306;3.150;2022-07-29T05:53:33;21.90;99.90
30206;DHT22;17010;51.306;3.150;2022-07-29T05:56:03;21.90;99.90
30206;DHT22;17010;51.306;3.150;2022-07-29T05:58:33;22.00;99.90
30206;DHT22;17010;51.306;3.150;2022-07-29T06:00:59;21.80;99.90
30206;DHT22;17010;51.306;3.150;2022-07-29T06:03:26;21.80;99.90
30206;DHT22;17010;51.306;3.150;2022-07-29T06:05:53;21.70;99.90
30206;DHT22;17010;51.306;3.150;2022-07-29T06:08:22;21.80;99.90
30206;DHT22;17010;51.306;3.150;2022-07-29T06:10:48;21.80;99.90
30206;DHT22;17010;51.306;3.150;2022-07-29T06:13:17;21.60;99.90
30206;DHT22;17010;51.306;3.150;2022-07-29T06:15:43;21.70;99.90
30206;DHT22;17010;51.306;3.150;2022-07-29T06:18:09;21.90;99.90
30206;DHT22;17010;51.306;3.150;2022-07-29T06:20:36;21.90;99.90
30206;DHT22;17010;51.306;3.150;2022-07-29T06:23:03;21.80;99.90
30206;DHT22;17010;51.306;3.150;2022-07-29T06:25:30;22.00;99.90
30206;DHT22;17010;51.306;3.150;2022-07-29T06:27:57;22.40;99.90
30206;DHT22;17010;51.306;3.150;2022-07-29T06:30:24;22.70;99.90
30206;DHT22;17010;51.306;3.150;2022-07-29T06:32:51;22.90;99.90
30206;DHT22;17010;51.306;3.150;2022-07-29T06:35:18;23.10;99.90
30206;DHT22;17010;51.306;3.150;2022-07-29T06:37:44;23.10;99.90
30206;DHT22;17010;51.306;3.150;2022-07-29T06:40:12;23.10;99.90
30206;DHT22;17010;51.306;3.150;2022-07-29T06:42:57;23.10;99.90
30206;DHT22;17010;51.306;3.150;2022-07-29T06:45:23;22.80;99.90
30206;DHT22;17010;51.306;3.150;2022-07-29T06:47:50;22.80;99.90
30206;DHT22;17010;51.306;3.150;2022-07-29T06:50:16;22.90;99.90
30206;DHT22;17010;51.306;3.150;2022-07-29T06:52:44;22.90;99.90
30206;DHT22;17010;51.306;3.150;2022-07-29T06:55:11;23.10;99.90
30206;DHT22;17010;51.306;3.150;2022-07-29T06:57:40;23.30;99.90
30206;DHT22;17010;51.306;3.150;2022-07-29T07:00:07;23.50;99.90
30206;DHT22;17010;51.306;3.150;2022-07-29T07:02:36;23.60;99.90
30206;DHT22;17010;51.306;3.150;2022-07-29T07:05:02;23.70;99.90
30206;DHT22;17010;51.306;3.150;2022-07-29T07:07:28;23.70;99.90
30206;DHT22;17010;51.306;3.150;2022-07-29T07:09:55;23.90;99.90
30206;DHT22;17010;51.306;3.150;2022-07-29T07:12:26;24.30;99.90
30206;DHT22;17010;51.306;3.150;2022-07-29T07:14:53;24.50;99.90
30206;DHT22;17010;51.306;3.150;2022-07-29T07:17:19;24.50;99.90
30206;DHT22;17010;51.306;3.150;2022-07-29T07:19:47;24.80;99.90
30206;DHT22;17010;51.306;3.150;2022-07-29T07:22:14;25.00;99.90
30206;DHT22;17010;51.306;3.150;2022-07-29T07:24:41;25.10;99.90
30206;DHT22;17010;51.306;3.150;2022-07-29T07:27:07;25.40;99.90
30206;DHT22;17010;51.306;3.150;2022-07-29T07:29:34;25.50;99.90
30206;DHT22;17010;51.306;3.150;2022-07-29T07:32:00;25.70;99.90
30206;DHT22;17010;51.306;3.150;2022-07-29T07:34:27;25.80;99.90
30206;DHT22;17010;51.306;3.150;2022-07-29T07:36:53;26.20;99.90
30206;DHT22;17010;51.306;3.150;2022-07-29T07:39:20;26.50;99.90
30206;DHT22;17010;51.306;3.150;2022-07-29T07:41:46;26.50;99.90
30206;DHT22;17010;51.306;3.150;2022-07-29T07:44:12;26.60;99.90
30206;DHT22;17010;51.306;3.150;2022-07-29T07:46:38;26.70;99.90
30206;DHT22;17010;51.306;3.150;2022-07-29T07:49:05;26.90;99.90
30206;DHT22;17010;51.306;3.150;2022-07-29T07:51:31;26.90;99.90
30206;DHT22;17010;51.306;3.150;2022-07-29T07:53:57;26.80;99.90
30206;DHT22;17010;51.306;3.150;2022-07-29T07:56:23;26.70;99.90
30206;DHT22;17010;51.306;3.150;2022-07-29T07:58:52;26.90;99.90
30206;DHT22;17010;51.306;3.150;2022-07-29T08:01:19;27.20;99.90
30206;DHT22;17010;51.306;3.150;2022-07-29T08:03:49;27.20;99.90
30206;DHT22;17010;51.306;3.150;2022-07-29T08:06:16;27.30;99.90
30206;DHT22;17010;51.306;3.150;2022-07-29T08:08:47;27.60;99.90
30206;DHT22;17010;51.306;3.150;2022-07-29T08:11:13;27.70;99.90
30206;DHT22;17010;51.306;3.150;2022-07-29T08:13:40;27.70;99.90
30206;DHT22;17010;51.306;3.150;2022-07-29T08:16:07;27.70;99.90
30206;DHT22;17010;51.306;3.150;2022-07-29T08:18:43;27.50;99.90
30206;DHT22;17010;51.306;3.150;2022-07-29T08:21:30;27.00;99.90
30206;DHT22;17010;51.306;3.150;2022-07-29T08:23:56;27.20;99.90
30206;DHT22;17010;51.306;3.150;2022-07-29T08:26:43;27.40;99.90
30206;DHT22;17010;51.306;3.150;2022-07-29T08:29:29;27.80;99.90
30206;DHT22;17010;51.306;3.150;2022-07-29T08:31:55;28.10;99.90
30206;DHT22;17010;51.306;3.150;2022-07-29T08:34:21;28.30;99.90
30206;DHT22;17010;51.306;3.150;2022-07-29T08:36:47;28.00;99.90
30206;DHT22;17010;51.306;3.150;2022-07-29T08:39:13;27.90;99.90
30206;DHT22;17010;51.306;3.150;2022-07-29T08:41:42;28.10;99.90
30206;DHT22;17010;51.306;3.150;2022-07-29T08:44:11;28.20;99.90
30206;DHT22;17010;51.306;3.150;2022-07-29T08:46:38;27.90;99.90
30206;DHT22;17010;51.306;3.150;2022-07-29T08:49:07;27.90;99.90
30206;DHT22;17010;51.306;3.150;2022-07-29T08:51:35;27.50;99.90
30206;DHT22;17010;51.306;3.150;2022-07-29T08:54:02;27.20;99.90
30206;DHT22;17010;51.306;3.150;2022-07-29T08:56:28;27.50;99.90
30206;DHT22;17010;51.306;3.150;2022-07-29T08:58:55;27.80;99.90
30206;DHT22;17010;51.306;3.150;2022-07-29T09:01:24;27.90;99.90
30206;DHT22;17010;51.306;3.150;2022-07-29T09:04:08;27.80;99.90
30206;DHT22;17010;51.306;3.150;2022-07-29T09:06:37;27.70;99.90
30206;DHT22;17010;51.306;3.150;2022-07-29T09:09:07;27.40;99.90
30206;DHT22;17010;51.306;3.150;2022-07-29T09:11:36;27.50;99.90
30206;DHT22;17010;51.306;3.150;2022-07-29T09:14:02;27.40;99.90
30206;DHT22;17010;51.306;3.150;2022-07-29T09:16:48;26.90;99.90
30206;DHT22;17010;51.306;3.150;2022-07-29T09:19:34;26.70;99.90
30206;DHT22;17010;51.306;3.150;2022-07-29T09:22:03;26.90;99.90
30206;DHT22;17010;51.306;3.150;2022-07-29T09:24:46;27.50;99.90
30206;DHT22;17010;51.306;3.150;2022-07-29T09:27:20;28.10;99.90
30206;DHT22;17010;51.306;3.150;2022-07-29T09:30:00;28.00;99.90
30206;DHT22;17010;51.306;3.150;2022-07-29T09:32:29;28.30;99.90
30206;DHT22;17010;51.306;3.150;2022-07-29T09:35:21;28.50;99.90
30206;DHT22;17010;51.306;3.150;2022-07-29T09:37:48;28.60;99.90
30206;DHT22;17010;51.306;3.150;2022-07-29T09:42:47;29.60;99.90
30206;DHT22;17010;51.306;3.150;2022-07-29T09:45:32;29.80;99.90
30206;DHT22;17010;51.306;3.150;2022-07-29T09:47:59;29.70;99.90
30206;DHT22;17010;51.306;3.150;2022-07-29T09:50:55;29.20;99.90
30206;DHT22;17010;51.306;3.150;2022-07-29T09:53:37;28.50;99.90
30206;DHT22;17010;51.306;3.150;2022-07-29T09:56:04;28.30;99.90
30206;DHT22;17010;51.306;3.150;2022-07-29T09:58:31;28.30;99.90
30206;DHT22;17010;51.306;3.150;2022-07-29T10:00:59;28.90;99.90
30206;DHT22;17010;51.306;3.150;2022-07-29T10:03:26;29.40;99.90
30206;DHT22;17010;51.306;3.150;2022-07-29T10:06:06;29.40;99.90
30206;DHT22;17010;51.306;3.150;2022-07-29T10:08:32;29.50;99.90
30206;DHT22;17010;51.306;3.150;2022-07-29T10:11:13;29.70;99.90
30206;DHT22;17010;51.306;3.150;2022-07-29T10:13:40;29.90;99.90
30206;DHT22;17010;51.306;3.150;2022-07-29T10:16:07;29.70;99.90
30206;DHT22;17010;51.306;3.150;2022-07-29T10:18:33;29.60;99.90
30206;DHT22;17010;51.306;3.150;2022-07-29T10:21:02;28.70;99.90
30206;DHT22;17010;51.306;3.150;2022-07-29T10:23:29;28.60;99.90
30206;DHT22;17010;51.306;3.150;2022-07-29T10:25:56;28.50;99.90
30206;DHT22;17010;51.306;3.150;2022-07-29T10:28:22;28.90;99.90
30206;DHT22;17010;51.306;3.150;2022-07-29T10:30:49;28.70;99.90
30206;DHT22;17010;51.306;3.150;2022-07-29T10:42:02;28.70;99.90
30206;DHT22;17010;51.306;3.150;2022-07-29T10:44:32;28.60;99.90
30206;DHT22;17010;51.306;3.150;2022-07-29T10:47:01;28.60;99.90
30206;DHT22;17010;51.306;3.150;2022-07-29T10:49:28;28.10;99.90
30206;DHT22;17010;51.306;3.150;2022-07-29T10:51:59;27.70;99.90
30206;DHT22;17010;51.306;3.150;2022-07-29T10:54:47;27.30;99.90
30206;DHT22;17010;51.306;3.150;2022-07-29T11:05:15;27.50;99.90
30206;DHT22;17010;51.306;3.150;2022-07-29T11:16:14;27.50;99.90
30206;DHT22;17010;51.306;3.150;2022-07-29T11:21:44;27.50;99.90
30206;DHT22;17010;51.306;3.150;2022-07-29T11:26:45;27.70;99.90
30206;DHT22;17010;51.306;3.150;2022-07-29T11:31:48;28.10;99.90
30206;DHT22;17010;51.306;3.150;2022-07-29T11:34:20;28.10;99.90
30206;DHT22;17010;51.306;3.150;2022-07-29T11:45:12;27.70;99.90
30206;DHT22;17010;51.306;3.150;2022-07-29T11:47:52;27.80;99.90
30206;DHT22;17010;51.306;3.150;2022-07-29T11:50:33;27.90;99.90
30206;DHT22;17010;51.306;3.150;2022-07-29T11:53:09;28.50;99.90
30206;DHT22;17010;51.306;3.150;2022-07-29T11:55:40;28.40;99.90
30206;DHT22;17010;51.306;3.150;2022-07-29T11:58:09;28.20;99.90
30206;DHT22;17010;51.306;3.150;2022-07-29T12:00:37;27.70;99.90
30206;DHT22;17010;51.306;3.150;2022-07-29T12:03:06;27.80;99.90
30206;DHT22;17010;51.306;3.150;2022-07-29T12:05:45;27.50;99.90
30206;DHT22;17010;51.306;3.150;2022-07-29T12:08:20;27.20;99.90
30206;DHT22;17010;51.306;3.150;2022-07-29T12:10:49;27.20;99.90
30206;DHT22;17010;51.306;3.150;2022-07-29T12:13:19;27.30;99.90
30206;DHT22;17010;51.306;3.150;2022-07-29T12:15:57;27.70;99.90
30206;DHT22;17010;51.306;3.150;2022-07-29T12:18:24;27.70;99.90
30206;DHT22;17010;51.306;3.150;2022-07-29T12:20:57;27.10;99.90
30206;DHT22;17010;51.306;3.150;2022-07-29T12:23:27;26.90;99.90
30206;DHT22;17010;51.306;3.150;2022-07-29T12:25:54;26.70;99.90
30206;DHT22;17010;51.306;3.150;2022-07-29T12:28:20;26.50;99.90
30206;DHT22;17010;51.306;3.150;2022-07-29T12:30:49;26.20;99.90
30206;DHT22;17010;51.306;3.150;2022-07-29T12:33:25;26.20;99.90
30206;DHT22;17010;51.306;3.150;2022-07-29T12:36:11;26.10;99.90
30206;DHT22;17010;51.306;3.150;2022-07-29T12:38:40;26.10;99.90
30206;DHT22;17010;51.306;3.150;2022-07-29T12:41:06;26.00;99.90
30206;DHT22;17010;51.306;3.150;2022-07-29T12:43:35;26.10;99.90
30206;DHT22;17010;51.306;3.150;2022-07-29T12:46:12;26.00;99.90
30206;DHT22;17010;51.306;3.150;2022-07-29T12:48:41;25.80;99.90
30206;DHT22;17010;51.306;3.150;2022-07-29T12:51:08;25.70;99.90
30206;DHT22;17010;51.306;3.150;2022-07-29T12:53:36;25.40;99.90
30206;DHT22;17010;51.306;3.150;2022-07-29T12:56:09;25.30;99.90
30206;DHT22;17010;51.306;3.150;2022-07-29T12:58:41;25.40;99.90
30206;DHT22;17010;51.306;3.150;2022-07-29T13:01:12;25.40;99.90
30206;DHT22;17010;51.306;3.150;2022-07-29T13:03:58;25.80;99.90
30206;DHT22;17010;51.306;3.150;2022-07-29T13:06:36;25.70;99.90
30206;DHT22;17010;51.306;3.150;2022-07-29T13:11:40;25.40;99.90
30206;DHT22;17010;51.306;3.150;2022-07-29T13:14:08;25.10;99.90
30206;DHT22;17010;51.306;3.150;2022-07-29T13:16:59;25.00;99.90
30206;DHT22;17010;51.306;3.150;2022-07-29T13:19:41;25.10;99.90
30206;DHT22;17010;51.306;3.150;2022-07-29T13:22:15;24.90;99.90
30206;DHT22;17010;51.306;3.150;2022-07-29T13:24:51;24.70;99.90
30206;DHT22;17010;51.306;3.150;2022-07-29T13:27:31;24.70;99.90
30206;DHT22;17010;51.306;3.150;2022-07-29T13:30:02;24.50;99.90
30206;DHT22;17010;51.306;3.150;2022-07-29T13:32:29;24.40;99.90
30206;DHT22;17010;51.306;3.150;2022-07-29T13:35:04;24.40;99.90
30206;DHT22;17010;51.306;3.150;2022-07-29T13:37:30;24.50;99.90
30206;DHT22;17010;51.306;3.150;2022-07-29T13:39:59;24.50;99.90
30206;DHT22;17010;51.306;3.150;2022-07-29T13:42:26;24.40;99.90
30206;DHT22;17010;51.306;3.150;2022-07-29T13:44:52;24.30;99.90
30206;DHT22;17010;51.306;3.150;2022-07-29T13:47:19;24.50;99.90
30206;DHT22;17010;51.306;3.150;2022-07-29T13:49:46;24.70;99.90
30206;DHT22;17010;51.306;3.150;2022-07-29T13:52:13;24.40;99.90
30206;DHT22;17010;51.306;3.150;2022-07-29T13:54:39;24.30;99.90
30206;DHT22;17010;51.306;3.150;2022-07-29T13:57:06;24.00;99.90
30206;DHT22;17010;51.306;3.150;2022-07-29T13:59:33;23.70;99.90
30206;DHT22;17010;51.306;3.150;2022-07-29T14:02:02;23.70;99.90
30206;DHT22;17010;51.306;3.150;2022-07-29T14:04:29;23.40;99.90
30206;DHT22;17010;51.306;3.150;2022-07-29T14:06:55;23.30;99.90
30206;DHT22;17010;51.306;3.150;2022-07-29T14:09:21;23.10;99.90
30206;DHT22;17010;51.306;3.150;2022-07-29T14:11:47;23.00;99.90
30206;DHT22;17010;51.306;3.150;2022-07-29T14:14:17;22.80;99.90
30206;DHT22;17010;51.306;3.150;2022-07-29T14:16:43;23.00;99.90
30206;DHT22;17010;51.306;3.150;2022-07-29T14:19:12;23.00;99.90
30206;DHT22;17010;51.306;3.150;2022-07-29T14:21:38;23.00;99.90
30206;DHT22;17010;51.306;3.150;2022-07-29T14:24:07;22.80;99.90
30206;DHT22;17010;51.306;3.150;2022-07-29T14:26:35;22.70;99.90
30206;DHT22;17010;51.306;3.150;2022-07-29T14:29:02;22.60;99.90
30206;DHT22;17010;51.306;3.150;2022-07-29T14:31:28;22.60;99.90
30206;DHT22;17010;51.306;3.150;2022-07-29T14:33:54;22.60;99.90
30206;DHT22;17010;51.306;3.150;2022-07-29T14:36:20;22.50;99.90
30206;DHT22;17010;51.306;3.150;2022-07-29T14:38:47;22.30;99.90
30206;DHT22;17010;51.306;3.150;2022-07-29T14:41:13;22.20;99.90
30206;DHT22;17010;51.306;3.150;2022-07-29T14:43:40;22.20;99.90
30206;DHT22;17010;51.306;3.150;2022-07-29T14:46:06;22.30;99.90
30206;DHT22;17010;51.306;3.150;2022-07-29T14:48:34;22.20;99.90
30206;DHT22;17010;51.306;3.150;2022-07-29T14:51:00;22.30;99.90
30206;DHT22;17010;51.306;3.150;2022-07-29T14:53:27;22.30;99.90
30206;DHT22;17010;51.306;3.150;2022-07-29T14:55:53;22.20;99.90
30206;DHT22;17010;51.306;3.150;2022-07-29T14:58:20;22.00;99.90
30206;DHT22;17010;51.306;3.150;2022-07-29T15:00:48;21.90;99.90
30206;DHT22;17010;51.306;3.150;2022-07-29T15:03:14;21.80;99.90
30206;DHT22;17010;51.306;3.150;2022-07-29T15:05:43;21.80;99.90
30206;DHT22;17010;51.306;3.150;2022-07-29T15:08:12;21.70;99.90
30206;DHT22;17010;51.306;3.150;2022-07-29T15:10:38;21.70;99.90
30206;DHT22;17010;51.306;3.150;2022-07-29T15:13:05;21.70;99.90
30206;DHT22;17010;51.306;3.150;2022-07-29T15:15:31;21.60;99.90
30206;DHT22;17010;51.306;3.150;2022-07-29T15:17:57;21.50;99.90
30206;DHT22;17010;51.306;3.150;2022-07-29T15:20:26;21.60;99.90
30206;DHT22;17010;51.306;3.150;2022-07-29T15:22:54;21.60;99.90
30206;DHT22;17010;51.306;3.150;2022-07-29T15:25:24;21.60;99.90
30206;DHT22;17010;51.306;3.150;2022-07-29T15:27:51;21.60;99.90
30206;DHT22;17010;51.306;3.150;2022-07-29T15:30:20;21.50;99.90
30206;DHT22;17010;51.306;3.150;2022-07-29T15:32:46;21.30;99.90
30206;DHT22;17010;51.306;3.150;2022-07-29T15:35:13;21.30;99.90
30206;DHT22;17010;51.306;3.150;2022-07-29T15:37:40;21.30;99.90
30206;DHT22;17010;51.306;3.150;2022-07-29T15:40:06;21.30;99.90
30206;DHT22;17010;51.306;3.150;2022-07-29T15:42:34;21.40;99.90
30206;DHT22;17010;51.306;3.150;2022-07-29T15:45:00;21.30;99.90
30206;DHT22;17010;51.306;3.150;2022-07-29T15:47:28;21.20;99.90
30206;DHT22;17010;51.306;3.150;2022-07-29T15:49:55;21.20;99.90
30206;DHT22;17010;51.306;3.150;2022-07-29T15:52:21;21.20;99.90
30206;DHT22;17010;51.306;3.150;2022-07-29T15:54:47;21.20;99.90
30206;DHT22;17010;51.306;3.150;2022-07-29T15:57:14;21.20;99.90
30206;DHT22;17010;51.306;3.150;2022-07-29T15:59:40;21.10;99.90
30206;DHT22;17010;51.306;3.150;2022-07-29T16:02:07;21.10;99.90
30206;DHT22;17010;51.306;3.150;2022-07-29T16:04:33;21.20;99.90
30206;DHT22;17010;51.306;3.150;2022-07-29T16:06:59;21.30;99.90
30206;DHT22;17010;51.306;3.150;2022-07-29T16:09:25;21.30;99.90
30206;DHT22;17010;51.306;3.150;2022-07-29T16:11:55;21.30;99.90
30206;DHT22;17010;51.306;3.150;2022-07-29T16:14:21;21.30;99.90
30206;DHT22;17010;51.306;3.150;2022-07-29T16:16:47;21.20;99.90
30206;DHT22;17010;51.306;3.150;2022-07-29T16:19:16;21.10;99.90
30206;DHT22;17010;51.306;3.150;2022-07-29T16:21:42;21.20;99.90
30206;DHT22;17010;51.306;3.150;2022-07-29T16:24:13;21.20;99.90
30206;DHT22;17010;51.306;3.150;2022-07-29T16:26:43;21.10;99.90
30206;DHT22;17010;51.306;3.150;2022-07-29T16:29:09;21.10;99.90
30206;DHT22;17010;51.306;3.150;2022-07-29T16:31:35;21.00;99.90
30206;DHT22;17010;51.306;3.150;2022-07-29T16:34:02;21.00;99.90
30206;DHT22;17010;51.306;3.150;2022-07-29T16:36:28;20.90;99.90
30206;DHT22;17010;51.306;3.150;2022-07-29T16:38:57;21.00;99.90
30206;DHT22;17010;51.306;3.150;2022-07-29T16:41:24;21.10;99.90
30206;DHT22;17010;51.306;3.150;2022-07-29T16:43:53;21.10;99.90
30206;DHT22;17010;51.306;3.150;2022-07-29T16:46:20;21.10;99.90